Massena International Richards Field Massena US
ICAO: KMSS
IATA: MSS
Category: Medium
Scheduled Services: Yes

Elevation: 215 ft
TransAlt. 18000 ft.

Airport Communications:
BOSTON APP/DEP:135.25
ASOS:128.075
BURLINGTON RDO:122.2
CTAF/UNICOM:123

KMSS Zoom In..

If you have problems with the map follow the link
https://www.worldairports.se/pages/airport.php?
ICAO=KMSS

Runways:

(A) RW 05 length 5600 ft width 100 ft
ILS 108.70 / hdg 45

(B) RW 09 length 4000 ft width 100 ft
---- / hdg 90

(C) RW 23 length 5600 ft width 100 ft
---- / hdg 225

(D) RW 27 length 4000 ft width 100 ft
---- / hdg 270

Location; KMSS
Day. 18 / Time. 21.53 Zulu
* Altimeter: 30.06
* Temperature: -07° c. -19.4°f.
* Wind from: 230° Speed 05 kn.
Dewpoint: -10° c.
Visibility: 10 Statute Miles.
Clouds: Overcast 6000 ft.

KMSS 182153Z AUTO 23005KT 10SM OVC060 M07/M10 A3006 RMK AO2 SLP187 T10721100


Wind From 230°
Speed 05 kn.

 
 
jpsmedia.com for Web Design worldairports.se 2019   terms of use